logo dgac
Lunes 20 de Septiembre del 2021
Buscar por aerodromo o helipuerto
Ingrese nombre de aeródromo, localidad o designador OACI:

Aeródromo: Santo Domingo (PUB) (SCSN)

Ubicación: Santo Domingo, V Región, Chile (33º 39' 24'' S, 71º 36' 57'' W) Ver ubicación en el mapa

Pistas

Orientación Dimensión Pendiente Superficie Resistencia APCH THR RWY PAPI
05/23 800 x 18 ASPH 5.700 Kg No No No
Horas de operación HJ
Elevación 75 m / 246 ft
Otra Información Adm : DGAC
Uso : PUB
TEL (56-2) 24363840
Ubicado a 1,5 km SE del balneario Rocas de Santo Domingo
email : aro.stodomingo@dgac.gob.cl

Otra información ver AIP-Chile Volumen I AD 3.9-18.9-S y VAC
CCCM/FCCV Descargar
andera de Chile
Mapa de Santo Domingo (PUB) (SCSN)

Último METAR

METAR SCSN 201000Z AUTO VRB02KT 9999 NCD 04/04 Q1022

Último TAF

No hay tafs registrados para este aeródromo

Últimas fotos cámaras

Imagen aerodromo Santo Domingo (PUB) (SCSN) N-Este tomada el 20-09-2021 10:36:39 Imagen aerodromo Santo Domingo (PUB) (SCSN) S-Oeste tomada el 20-09-2021 10:37:00

Último NOTAM

C4150/21 NOTAMN Q)SCEZ/QFUAU/IV/NBO/A/000/999/3339S07137W005 A)SCSN B)2109211200 C)2109212359 E)AVGAS 100/130 NO AVBL